Time;durP1;ratioP1;P1;durP2;ratioP2;P2;SDS_P1;SDS_P2;PMS_P1;PMS_P2;Temp;Humidity;BMP_temperature;BMP_pressure;BME280_temperature;BME280_humidity;BME280_pressure;Samples;Min_cycle;Max_cycle;Signal;HPM_P1;HPM_P2
2022/03/19 00:00:26;;;;;;;;;;;3.30;99.90;;;;;;5024685;28;20346;-59
2022/03/19 00:02:54;;;;;;;;;;;3.30;99.90;;;;;;5005796;28;19922;-59
2022/03/19 00:05:21;;;;;;;;;;;3.10;99.90;;;;;;5029998;23;20035;-60
2022/03/19 00:07:49;;;;;;;;;;;3.00;99.90;;;;;;5030003;28;20007;-60
2022/03/19 00:10:16;;;;;;;;;;;3.00;99.90;;;;;;5026077;28;20289;-60
2022/03/19 00:12:43;;;;;;;;;;;3.00;99.90;;;;;;5024478;28;20415;-60
2022/03/19 00:15:10;;;;;;;;;;;3.00;99.90;;;;;;5011412;28;19921;-61
2022/03/19 00:17:38;;;;;;;;;;;2.90;99.90;;;;;;5013226;28;20373;-60
2022/03/19 00:20:05;;;;;;;;;;;2.90;99.90;;;;;;5002405;28;19976;-61
2022/03/19 00:22:32;;;;;;;;;;;2.90;99.90;;;;;;5002362;28;20400;-63
2022/03/19 00:24:59;;;;;;;;;;;2.80;99.90;;;;;;5001431;28;19929;-62
2022/03/19 00:27:25;;;;;;;;;;;2.80;99.90;;;;;;5002945;28;19959;-62
2022/03/19 00:29:52;;;;;;;;;;;2.70;99.90;;;;;;4986303;28;19933;-62
2022/03/19 00:32:19;;;;;;;;;;;2.60;99.90;;;;;;5012481;28;19976;-60
2022/03/19 00:34:46;;;;;;;;;;;2.60;99.90;;;;;;5006377;28;19925;-60
2022/03/19 00:37:13;;;;;;;;;;;2.60;99.90;;;;;;5006050;28;19925;-60
2022/03/19 00:39:39;;;;;;;;;;;2.50;99.90;;;;;;5005138;28;19949;-60
2022/03/19 00:42:07;;;;;;;;;;;2.40;99.90;;;;;;5013021;28;19929;-63
2022/03/19 00:44:34;;;;;;;;;;;2.40;99.90;;;;;;5012764;28;19921;-59
2022/03/19 00:47:01;;;;;;;;;;;2.40;99.90;;;;;;5002555;28;20455;-60
2022/03/19 00:49:28;;;;;;;;;;;2.40;99.90;;;;;;5004502;28;19928;-60
2022/03/19 00:51:55;;;;;;;;;;;2.30;99.90;;;;;;5009448;28;20004;-62
2022/03/19 00:54:22;;;;;;;;;;;2.40;99.90;;;;;;5009276;28;19925;-61
2022/03/19 00:56:49;;;;;;;;;;;2.40;99.90;;;;;;5001078;28;19922;-61
2022/03/19 00:59:16;;;;;;;;;;;2.40;99.90;;;;;;5006977;28;19922;-62
2022/03/19 01:01:43;;;;;;;;;;;2.30;99.90;;;;;;5008410;28;19925;-62
2022/03/19 01:04:10;;;;;;;;;;;2.30;99.90;;;;;;5006941;28;19927;-62
2022/03/19 01:06:37;;;;;;;;;;;2.30;99.90;;;;;;4999352;28;19928;-62
2022/03/19 01:09:04;;;;;;;;;;;2.30;99.90;;;;;;5008366;28;20017;-62
2022/03/19 01:11:31;;;;;;;;;;;2.30;99.90;;;;;;5006179;28;20019;-62
2022/03/19 01:13:57;;;;;;;;;;;2.30;99.90;;;;;;5000648;28;19929;-61
2022/03/19 01:16:25;;;;;;;;;;;2.40;99.90;;;;;;5005807;28;19925;-62
2022/03/19 01:18:52;;;;;;;;;;;2.40;99.90;;;;;;5008290;28;19928;-62
2022/03/19 01:21:19;;;;;;;;;;;2.40;99.90;;;;;;4991168;28;20300;-62
2022/03/19 01:23:46;;;;;;;;;;;2.40;99.90;;;;;;5010367;28;19928;-62
2022/03/19 01:26:13;;;;;;;;;;;2.20;99.90;;;;;;5004316;28;19925;-62
2022/03/19 01:28:40;;;;;;;;;;;2.10;99.90;;;;;;5002577;28;20401;-62
2022/03/19 01:31:07;;;;;;;;;;;2.10;99.90;;;;;;5002606;28;20056;-62
2022/03/19 01:33:34;;;;;;;;;;;2.10;99.90;;;;;;5011415;28;19932;-62
2022/03/19 01:36:00;;;;;;;;;;;2.00;99.90;;;;;;5004415;28;19921;-62
2022/03/19 01:38:27;;;;;;;;;;;1.90;99.90;;;;;;5004386;28;19925;-62
2022/03/19 01:40:54;;;;;;;;;;;1.90;99.90;;;;;;5012211;28;19922;-64
2022/03/19 01:43:22;;;;;;;;;;;1.80;99.90;;;;;;5011997;28;20020;-62
2022/03/19 01:45:49;;;;;;;;;;;1.90;99.90;;;;;;5004203;28;19921;-62
2022/03/19 01:48:16;;;;;;;;;;;1.90;99.90;;;;;;5012703;28;20304;-61
2022/03/19 01:50:43;;;;;;;;;;;1.90;99.90;;;;;;5012322;28;19929;-61
2022/03/19 01:53:10;;;;;;;;;;;1.90;99.90;;;;;;5011602;28;19967;-62
2022/03/19 01:55:37;;;;;;;;;;;1.70;99.90;;;;;;5004060;28;19979;-62
2022/03/19 01:58:04;;;;;;;;;;;1.70;99.90;;;;;;5012414;28;19921;-62
2022/03/19 02:00:32;;;;;;;;;;;1.60;99.90;;;;;;4994116;28;19921;-62
2022/03/19 02:02:59;;;;;;;;;;;1.50;99.90;;;;;;5003507;28;19922;-62
2022/03/19 02:05:26;;;;;;;;;;;1.40;99.90;;;;;;5012093;28;19948;-62
2022/03/19 02:07:53;;;;;;;;;;;1.50;99.90;;;;;;5011551;28;19921;-62
2022/03/19 02:10:22;;;;;;;;;;;1.60;99.90;;;;;;4997989;28;20020;-62
2022/03/19 02:12:50;;;;;;;;;;;1.70;99.90;;;;;;4994577;28;19925;-62
2022/03/19 02:15:17;;;;;;;;;;;1.80;99.90;;;;;;5008945;28;20012;-62
2022/03/19 02:17:44;;;;;;;;;;;1.80;99.90;;;;;;5003854;28;19929;-62
2022/03/19 02:20:11;;;;;;;;;;;1.70;99.90;;;;;;5006091;28;19922;-62
2022/03/19 02:22:38;;;;;;;;;;;1.60;99.90;;;;;;5009462;28;19922;-62
2022/03/19 02:27:51;;;;;;;;;;;1.50;99.90;;;;;;5008986;28;19930;-62
2022/03/19 02:30:18;;;;;;;;;;;1.50;99.90;;;;;;4992711;28;19941;-62
2022/03/19 02:32:49;;;;;;;;;;;1.60;99.90;;;;;;5013923;28;19928;-61
2022/03/19 02:35:17;;;;;;;;;;;1.50;99.90;;;;;;5013625;28;19921;-62
2022/03/19 02:37:46;;;;;;;;;;;1.40;99.90;;;;;;5012921;28;19921;-62
2022/03/19 02:40:14;;;;;;;;;;;1.40;99.90;;;;;;5009701;28;19971;-61
2022/03/19 02:42:43;;;;;;;;;;;1.50;99.90;;;;;;5015478;28;20392;-62
2022/03/19 02:45:09;;;;;;;;;;;1.60;99.90;;;;;;5015860;28;19925;-61
2022/03/19 02:47:57;;;;;;;;;;;1.60;99.90;;;;;;5014368;28;19937;-61
2022/03/19 02:50:25;;;;;;;;;;;1.60;99.90;;;;;;5011236;28;19921;-62
2022/03/19 02:52:52;;;;;;;;;;;1.60;99.90;;;;;;5015188;28;19929;-62
2022/03/19 02:55:20;;;;;;;;;;;1.50;99.90;;;;;;5015060;28;20374;-61
2022/03/19 02:57:47;;;;;;;;;;;1.50;99.90;;;;;;5007323;28;19921;-62
2022/03/19 03:00:14;;;;;;;;;;;1.50;99.90;;;;;;5015672;28;19925;-61
2022/03/19 03:02:41;;;;;;;;;;;1.50;99.90;;;;;;5015042;28;19921;-62
2022/03/19 03:05:10;;;;;;;;;;;1.50;99.90;;;;;;5009658;28;19965;-61
2022/03/19 03:07:37;;;;;;;;;;;1.50;99.90;;;;;;5012694;28;19925;-62
2022/03/19 03:10:04;;;;;;;;;;;1.50;99.90;;;;;;5013870;28;20023;-61
2022/03/19 03:12:32;;;;;;;;;;;1.40;99.90;;;;;;5013326;28;19925;-61
2022/03/19 03:14:59;;;;;;;;;;;1.60;99.90;;;;;;5006937;28;20416;-61
2022/03/19 03:17:27;;;;;;;;;;;1.00;99.90;;;;;;5015215;28;19925;-62
2022/03/19 03:19:54;;;;;;;;;;;0.90;99.90;;;;;;5015197;28;20400;-62
2022/03/19 03:22:21;;;;;;;;;;;0.90;99.90;;;;;;5014134;28;19921;-62
2022/03/19 03:24:48;;;;;;;;;;;0.90;99.90;;;;;;5005528;28;19921;-62
2022/03/19 03:27:15;;;;;;;;;;;0.90;99.90;;;;;;5015180;28;19925;-62
2022/03/19 03:29:42;;;;;;;;;;;0.90;99.90;;;;;;5015027;28;19971;-62
2022/03/19 03:32:09;;;;;;;;;;;1.00;99.90;;;;;;5013837;28;19921;-62
2022/03/19 03:34:37;;;;;;;;;;;0.90;99.90;;;;;;5006401;28;19925;-63
2022/03/19 03:37:04;;;;;;;;;;;1.00;99.90;;;;;;5014879;28;20395;-59
2022/03/19 03:39:32;;;;;;;;;;;1.00;99.90;;;;;;5014126;28;19940;-62
2022/03/19 03:41:58;;;;;;;;;;;0.90;99.90;;;;;;5005882;28;19925;-62
2022/03/19 03:44:26;;;;;;;;;;;0.90;99.90;;;;;;5014639;28;19925;-62
2022/03/19 03:46:52;;;;;;;;;;;0.80;99.90;;;;;;5014021;28;19925;-62
2022/03/19 03:49:19;;;;;;;;;;;0.80;99.90;;;;;;5007873;28;19991;-62
2022/03/19 03:51:46;;;;;;;;;;;0.80;99.90;;;;;;4994433;28;19953;-62
2022/03/19 03:54:14;;;;;;;;;;;0.80;99.90;;;;;;4977600;28;19925;-62
2022/03/19 03:56:41;;;;;;;;;;;0.80;99.90;;;;;;5010664;28;19929;-62
2022/03/19 03:59:07;;;;;;;;;;;0.80;99.90;;;;;;5007936;28;19922;-59
2022/03/19 04:01:34;;;;;;;;;;;0.80;99.90;;;;;;5013932;28;20408;-61
2022/03/19 04:04:02;;;;;;;;;;;0.80;99.90;;;;;;5013415;28;19925;-62
2022/03/19 04:06:28;;;;;;;;;;;0.80;99.90;;;;;;5006436;28;20337;-61
2022/03/19 04:08:55;;;;;;;;;;;0.80;99.90;;;;;;5014132;28;19926;-62
2022/03/19 04:11:22;;;;;;;;;;;0.80;99.90;;;;;;5013757;28;19921;-62
2022/03/19 04:13:49;;;;;;;;;;;0.80;99.90;;;;;;5005490;28;19921;-62
2022/03/19 04:16:21;;;;;;;;;;;0.80;99.90;;;;;;5013984;28;19988;-60
2022/03/19 04:18:48;;;;;;;;;;;0.80;99.90;;;;;;5014058;28;19929;-60
2022/03/19 04:21:15;;;;;;;;;;;0.70;99.90;;;;;;5013050;28;19929;-60
2022/03/19 04:23:42;;;;;;;;;;;0.70;99.90;;;;;;4996401;28;20313;-60
2022/03/19 04:26:09;;;;;;;;;;;0.70;99.90;;;;;;5013741;28;20397;-59
2022/03/19 04:28:36;;;;;;;;;;;0.60;99.90;;;;;;5013126;28;20407;-60
2022/03/19 04:31:03;;;;;;;;;;;0.60;99.90;;;;;;5005474;28;20282;-60
2022/03/19 04:33:31;;;;;;;;;;;0.70;99.90;;;;;;5013663;28;20020;-60
2022/03/19 04:38:45;;;;;;;;;;;0.70;99.90;;;;;;5012892;28;20015;-60
2022/03/19 04:41:12;;;;;;;;;;;0.70;99.90;;;;;;5005074;28;19930;-60
2022/03/19 04:43:39;;;;;;;;;;;0.60;99.90;;;;;;5013620;28;20415;-60
2022/03/19 04:46:06;;;;;;;;;;;0.50;99.90;;;;;;5013517;28;19921;-59
2022/03/19 04:48:33;;;;;;;;;;;0.40;99.90;;;;;;5012390;28;20373;-59
2022/03/19 04:51:00;;;;;;;;;;;0.40;99.90;;;;;;5005506;28;20447;-60
2022/03/19 04:53:27;;;;;;;;;;;0.30;99.90;;;;;;5012323;28;20016;-61
2022/03/19 04:55:54;;;;;;;;;;;0.30;99.90;;;;;;5012852;28;20278;-61
2022/03/19 04:58:21;;;;;;;;;;;0.40;99.90;;;;;;5006514;28;20016;-61
2022/03/19 05:00:48;;;;;;;;;;;0.40;99.90;;;;;;5012177;28;19922;-61
2022/03/19 05:03:16;;;;;;;;;;;0.40;99.90;;;;;;5013342;28;20330;-61
2022/03/19 05:05:43;;;;;;;;;;;0.40;99.90;;;;;;5012518;28;19922;-61
2022/03/19 05:08:10;;;;;;;;;;;0.50;99.90;;;;;;5007351;28;19922;-61
2022/03/19 05:13:23;;;;;;;;;;;0.60;99.90;;;;;;5012982;28;20023;-61
2022/03/19 05:15:50;;;;;;;;;;;0.60;99.90;;;;;;5012305;28;19927;-62
2022/03/19 05:18:17;;;;;;;;;;;0.50;99.90;;;;;;5006624;28;19926;-61
2022/03/19 05:20:45;;;;;;;;;;;0.50;99.90;;;;;;5011201;28;19925;-62
2022/03/19 05:23:12;;;;;;;;;;;0.30;99.90;;;;;;5012825;28;20525;-61
2022/03/19 05:25:39;;;;;;;;;;;0.30;99.90;;;;;;5011002;28;19921;-61
2022/03/19 05:28:06;;;;;;;;;;;0.30;99.90;;;;;;5005913;28;19925;-61
2022/03/19 05:30:51;;;;;;;;;;;0.20;99.90;;;;;;5012659;28;20443;-61
2022/03/19 05:33:18;;;;;;;;;;;0.20;99.90;;;;;;5012753;28;19921;-61
2022/03/19 05:35:45;;;;;;;;;;;0.10;99.90;;;;;;5008754;28;20472;-62
2022/03/19 05:38:12;;;;;;;;;;;0.10;99.90;;;;;;5006729;28;19921;-62
2022/03/19 05:40:39;;;;;;;;;;;0.00;99.90;;;;;;5012346;28;19980;-62
2022/03/19 05:43:07;;;;;;;;;;;0.00;99.90;;;;;;5012263;28;19921;-62
2022/03/19 05:45:34;;;;;;;;;;;0.00;99.90;;;;;;5003693;28;19929;-63
2022/03/19 05:48:01;;;;;;;;;;;0.10;99.90;;;;;;5012504;28;19927;-62
2022/03/19 05:50:28;;;;;;;;;;;0.20;99.90;;;;;;5012542;28;19967;-62
2022/03/19 05:52:54;;;;;;;;;;;0.20;99.90;;;;;;5011499;28;20399;-62
2022/03/19 05:55:21;;;;;;;;;;;0.30;99.90;;;;;;5004223;28;20512;-62
2022/03/19 05:57:49;;;;;;;;;;;0.30;99.90;;;;;;5012312;28;19968;-62
2022/03/19 06:00:16;;;;;;;;;;;0.40;99.90;;;;;;5011634;28;20496;-62
2022/03/19 06:02:43;;;;;;;;;;;0.50;99.90;;;;;;5003590;28;19932;-62
2022/03/19 06:05:15;;;;;;;;;;;1.00;99.90;;;;;;5032393;23;19921;-59
2022/03/19 06:07:42;;;;;;;;;;;0.50;99.90;;;;;;5029339;28;20015;-59
2022/03/19 06:10:09;;;;;;;;;;;0.30;99.90;;;;;;5019958;28;19944;-59
2022/03/19 06:12:36;;;;;;;;;;;0.30;99.90;;;;;;5011758;28;19925;-59
2022/03/19 06:15:04;;;;;;;;;;;0.30;99.90;;;;;;5017013;28;19929;-59
2022/03/19 06:17:31;;;;;;;;;;;0.40;99.90;;;;;;5023551;28;20015;-59
2022/03/19 06:19:58;;;;;;;;;;;0.40;99.90;;;;;;5031667;28;20347;-59
2022/03/19 06:22:25;;;;;;;;;;;0.50;99.90;;;;;;5026195;28;19921;-59
2022/03/19 06:24:52;;;;;;;;;;;0.60;99.90;;;;;;5022888;28;19929;-59
2022/03/19 06:27:18;;;;;;;;;;;0.60;99.90;;;;;;5031598;28;19921;-59
2022/03/19 06:29:45;;;;;;;;;;;0.60;99.90;;;;;;5031707;28;19921;-59
2022/03/19 06:32:14;;;;;;;;;;;0.70;99.90;;;;;;5000890;28;19922;-59
2022/03/19 06:34:43;;;;;;;;;;;0.70;99.90;;;;;;5020021;28;19921;-59
2022/03/19 06:37:22;;;;;;;;;;;0.80;99.90;;;;;;5011870;28;19995;-59
2022/03/19 06:39:53;;;;;;;;;;;0.90;99.90;;;;;;5022994;28;19971;-59
2022/03/19 06:42:20;;;;;;;;;;;1.00;99.90;;;;;;5016424;28;19921;-59
2022/03/19 06:44:47;;;;;;;;;;;1.00;99.90;;;;;;5011664;28;20395;-59
2022/03/19 06:47:14;;;;;;;;;;;1.00;99.90;;;;;;5018202;28;19925;-59
2022/03/19 06:49:41;;;;;;;;;;;1.10;99.90;;;;;;5021791;28;19972;-58
2022/03/19 06:52:10;;;;;;;;;;;1.20;99.90;;;;;;5011363;28;19921;-59
2022/03/19 06:54:37;;;;;;;;;;;1.90;99.90;;;;;;5011747;28;19925;-59
2022/03/19 06:57:04;;;;;;;;;;;1.30;99.90;;;;;;5024417;28;19990;-59
2022/03/19 06:59:31;;;;;;;;;;;1.40;99.90;;;;;;5015063;28;19928;-59
2022/03/19 07:01:58;;;;;;;;;;;1.50;99.90;;;;;;5011437;28;19925;-59
2022/03/19 07:04:26;;;;;;;;;;;1.50;99.90;;;;;;5018831;28;20000;-59
2022/03/19 07:06:52;;;;;;;;;;;1.60;99.90;;;;;;5022877;28;20328;-59
2022/03/19 07:09:29;;;;;;;;;;;1.60;99.90;;;;;;5031410;28;19921;-59
2022/03/19 07:11:56;;;;;;;;;;;1.70;99.90;;;;;;5030996;28;20439;-59
2022/03/19 07:14:23;;;;;;;;;;;1.80;99.90;;;;;;5027731;28;20012;-59
2022/03/19 07:16:50;;;;;;;;;;;1.90;99.90;;;;;;5014499;28;19925;-59
2022/03/19 07:19:17;;;;;;;;;;;2.00;99.90;;;;;;5015343;28;19931;-59
2022/03/19 07:21:44;;;;;;;;;;;2.10;99.90;;;;;;5014736;28;20377;-58
2022/03/19 07:24:11;;;;;;;;;;;2.20;99.90;;;;;;5028872;28;19928;-59
2022/03/19 07:26:38;;;;;;;;;;;2.30;99.90;;;;;;5017240;28;19921;-59
2022/03/19 07:29:05;;;;;;;;;;;2.50;99.90;;;;;;5014967;28;20036;-59
2022/03/19 07:31:31;;;;;;;;;;;2.60;99.90;;;;;;5023119;28;19991;-59
2022/03/19 07:33:59;;;;;;;;;;;2.70;99.90;;;;;;5022412;28;20341;-59
2022/03/19 07:36:26;;;;;;;;;;;2.90;99.90;;;;;;5014854;28;19925;-59
2022/03/19 07:38:53;;;;;;;;;;;3.00;99.90;;;;;;5018085;28;19928;-59
2022/03/19 07:44:06;;;;;;;;;;;3.10;99.90;;;;;;5017221;28;19928;-59
2022/03/19 07:46:35;;;;;;;;;;;3.30;99.90;;;;;;5014555;28;19956;-59
2022/03/19 07:49:02;;;;;;;;;;;3.40;99.90;;;;;;5027604;28;19921;-59
2022/03/19 07:51:29;;;;;;;;;;;3.60;99.90;;;;;;5014894;28;19976;-59
2022/03/19 07:53:56;;;;;;;;;;;3.70;99.90;;;;;;5014471;28;19921;-59
2022/03/19 07:56:24;;;;;;;;;;;3.70;99.90;;;;;;5018825;28;20036;-59
2022/03/19 07:58:51;;;;;;;;;;;3.90;99.90;;;;;;5025589;28;20401;-59
2022/03/19 08:01:19;;;;;;;;;;;4.10;99.90;;;;;;5028232;28;19921;-59
2022/03/19 08:03:46;;;;;;;;;;;4.10;99.90;;;;;;5014378;28;20377;-59
2022/03/19 08:06:13;;;;;;;;;;;4.10;99.90;;;;;;5016243;28;19931;-59
2022/03/19 08:08:41;;;;;;;;;;;4.20;99.90;;;;;;5025665;28;19921;-59
2022/03/19 08:11:07;;;;;;;;;;;4.30;99.90;;;;;;5032794;28;19921;-59
2022/03/19 08:13:34;;;;;;;;;;;4.40;99.90;;;;;;5021528;28;19921;-59
2022/03/19 08:16:01;;;;;;;;;;;4.40;99.90;;;;;;5028213;28;19921;-59
2022/03/19 08:18:29;;;;;;;;;;;4.50;99.90;;;;;;5024466;28;20324;-59
2022/03/19 08:20:57;;;;;;;;;;;4.50;99.90;;;;;;5020920;28;19967;-59
2022/03/19 08:23:24;;;;;;;;;;;4.50;99.90;;;;;;5019158;28;19921;-59
2022/03/19 08:25:51;;;;;;;;;;;4.50;99.90;;;;;;5022165;28;19921;-59
2022/03/19 08:28:18;;;;;;;;;;;4.60;99.90;;;;;;5013580;28;19929;-59
2022/03/19 08:30:45;;;;;;;;;;;4.60;99.90;;;;;;5021870;28;19921;-59
2022/03/19 08:33:12;;;;;;;;;;;4.60;99.90;;;;;;5008921;28;19921;-59
2022/03/19 08:35:39;;;;;;;;;;;4.70;99.90;;;;;;5013400;28;19925;-59
2022/03/19 08:40:51;;;;;;;;;;;4.80;99.90;;;;;;5024609;28;19952;-59
2022/03/19 08:43:18;;;;;;;;;;;5.00;99.90;;;;;;5032647;28;19956;-59
2022/03/19 08:45:45;;;;;;;;;;;5.10;99.90;;;;;;5029646;28;19955;-59
2022/03/19 08:48:13;;;;;;;;;;;5.20;99.90;;;;;;5024709;28;19956;-59
2022/03/19 08:50:40;;;;;;;;;;;5.30;99.90;;;;;;5033109;28;20015;-59
2022/03/19 08:53:07;;;;;;;;;;;5.40;99.90;;;;;;5020961;28;19925;-59
2022/03/19 08:55:34;;;;;;;;;;;5.40;99.90;;;;;;5021833;28;20385;-59
2022/03/19 08:58:01;;;;;;;;;;;5.30;99.90;;;;;;5032969;28;19988;-58
2022/03/19 09:00:28;;;;;;;;;;;5.20;99.90;;;;;;5032484;28;19933;-59
2022/03/19 09:02:58;;;;;;;;;;;5.30;99.90;;;;;;5027359;28;20023;-59
2022/03/19 09:05:27;;;;;;;;;;;5.40;99.90;;;;;;5017972;28;19921;-59
2022/03/19 09:07:53;;;;;;;;;;;5.40;99.90;;;;;;5012626;28;19922;-55
2022/03/19 09:10:20;;;;;;;;;;;5.50;99.90;;;;;;5031948;28;19920;-59
2022/03/19 09:12:47;;;;;;;;;;;5.60;99.90;;;;;;5027734;28;19931;-59
2022/03/19 09:15:14;;;;;;;;;;;5.70;99.90;;;;;;5025051;28;19925;-59
2022/03/19 09:17:41;;;;;;;;;;;5.90;99.90;;;;;;5030926;28;19931;-59
2022/03/19 09:20:10;;;;;;;;;;;6.10;99.90;;;;;;5032555;28;19924;-59
2022/03/19 09:22:37;;;;;;;;;;;6.20;99.90;;;;;;5031665;28;20351;-59
2022/03/19 09:25:04;;;;;;;;;;;6.40;99.90;;;;;;5030804;28;19921;-59
2022/03/19 09:27:32;;;;;;;;;;;6.30;99.90;;;;;;5032664;28;20339;-58
2022/03/19 09:29:59;;;;;;;;;;;6.30;99.90;;;;;;5032532;28;19967;-59
2022/03/19 09:32:26;;;;;;;;;;;6.40;99.90;;;;;;5028783;28;20000;-59
2022/03/19 09:34:53;;;;;;;;;;;6.50;99.90;;;;;;5031252;28;20453;-59
2022/03/19 09:37:20;;;;;;;;;;;6.70;99.90;;;;;;5032476;28;19921;-59
2022/03/19 09:39:49;;;;;;;;;;;6.70;99.90;;;;;;5031245;28;20370;-58
2022/03/19 09:42:16;;;;;;;;;;;6.90;99.90;;;;;;5020145;28;19921;-59
2022/03/19 09:44:43;;;;;;;;;;;6.90;99.90;;;;;;5025455;28;19940;-59
2022/03/19 09:47:11;;;;;;;;;;;7.00;99.90;;;;;;5022471;28;20012;-59
2022/03/19 09:49:39;;;;;;;;;;;6.90;99.90;;;;;;5025636;28;20028;-59
2022/03/19 09:52:06;;;;;;;;;;;7.00;99.90;;;;;;5024791;28;20432;-59
2022/03/19 09:54:32;;;;;;;;;;;7.20;99.90;;;;;;5031924;28;19975;-59
2022/03/19 09:56:59;;;;;;;;;;;7.30;99.90;;;;;;5023846;28;19925;-59
2022/03/19 09:59:27;;;;;;;;;;;7.40;99.90;;;;;;5026034;28;19979;-59
2022/03/19 10:01:54;;;;;;;;;;;7.50;99.90;;;;;;5013766;28;19921;-59
2022/03/19 10:04:21;;;;;;;;;;;7.60;99.90;;;;;;5025856;28;19960;-59
2022/03/19 10:09:48;;;;;;;;;;;7.80;99.90;;;;;;5015577;28;20300;-59
2022/03/19 10:12:20;;;;;;;;;;;7.80;99.90;;;;;;5022640;28;20011;-59
2022/03/19 10:14:47;;;;;;;;;;;7.70;99.90;;;;;;5025469;28;19925;-59
2022/03/19 10:17:28;;;;;;;;;;;7.80;99.90;;;;;;5026230;28;20012;-59
2022/03/19 10:20:04;;;;;;;;;;;7.90;99.90;;;;;;5027894;28;19925;-59
2022/03/19 10:22:31;;;;;;;;;;;7.90;99.90;;;;;;5014728;28;19928;-59
2022/03/19 10:25:02;;;;;;;;;;;7.90;99.90;;;;;;5023695;28;19921;-59
2022/03/19 10:27:33;;;;;;;;;;;8.00;99.90;;;;;;5031762;28;20408;-59
2022/03/19 10:30:01;;;;;;;;;;;7.90;99.90;;;;;;5030346;28;19979;-59
2022/03/19 10:32:29;;;;;;;;;;;8.00;99.90;;;;;;5023620;28;19968;-59
2022/03/19 10:34:55;;;;;;;;;;;8.10;99.90;;;;;;5027597;28;19929;-59
2022/03/19 10:37:39;;;;;;;;;;;8.20;99.90;;;;;;5026901;28;19925;-59
2022/03/19 10:40:08;;;;;;;;;;;8.20;99.90;;;;;;5031415;28;19927;-59
2022/03/19 10:42:39;;;;;;;;;;;8.20;99.90;;;;;;5020902;28;19953;-59
2022/03/19 10:45:10;;;;;;;;;;;8.20;99.90;;;;;;5021586;28;19952;-59
2022/03/19 10:47:40;;;;;;;;;;;8.30;99.90;;;;;;5021789;28;19921;-59
2022/03/19 10:50:07;;;;;;;;;;;8.50;99.90;;;;;;5022405;28;19925;-59
2022/03/19 10:52:36;;;;;;;;;;;8.40;99.90;;;;;;5026306;28;20398;-59
2022/03/19 10:55:04;;;;;;;;;;;8.40;99.90;;;;;;5016952;28;19932;-59
2022/03/19 10:57:31;;;;;;;;;;;8.40;99.90;;;;;;4999888;28;20012;-59
2022/03/19 10:59:58;;;;;;;;;;;8.50;99.90;;;;;;5022982;28;19928;-60
2022/03/19 11:02:30;;;;;;;;;;;8.60;99.90;;;;;;5023822;28;19925;-60
2022/03/19 11:04:58;;;;;;;;;;;8.60;99.90;;;;;;5025489;28;19925;-60
2022/03/19 11:07:27;;;;;;;;;;;8.60;99.90;;;;;;5023679;28;19964;-60
2022/03/19 11:09:56;;;;;;;;;;;8.70;99.90;;;;;;5024344;28;19925;-60
2022/03/19 11:12:25;;;;;;;;;;;8.80;99.90;;;;;;5030572;28;19921;-60
2022/03/19 11:14:53;;;;;;;;;;;8.90;99.90;;;;;;5034170;28;19933;-59
2022/03/19 11:17:33;;;;;;;;;;;8.90;99.90;;;;;;5032820;28;19928;-60
2022/03/19 11:20:02;;;;;;;;;;;8.70;99.90;;;;;;5009508;28;20384;-59
2022/03/19 11:22:39;;;;;;;;;;;8.60;99.90;;;;;;5021056;28;20051;-59
2022/03/19 11:25:25;;;;;;;;;;;8.50;99.90;;;;;;5014853;28;19925;-60
2022/03/19 11:27:57;;;;;;;;;;;8.50;99.90;;;;;;5015238;28;19968;-60
2022/03/19 11:30:25;;;;;;;;;;;8.60;99.90;;;;;;5023454;28;19921;-60
2022/03/19 11:33:01;;;;;;;;;;;8.70;99.90;;;;;;5025181;28;19921;-60
2022/03/19 11:35:28;;;;;;;;;;;8.70;99.90;;;;;;5024019;28;19952;-60
2022/03/19 11:37:56;;;;;;;;;;;8.70;99.90;;;;;;5022846;28;19928;-60
2022/03/19 11:40:28;;;;;;;;;;;8.90;99.90;;;;;;5024508;28;20012;-60
2022/03/19 11:43:16;;;;;;;;;;;9.20;99.90;;;;;;5026827;28;20019;-61
2022/03/19 11:45:53;;;;;;;;;;;9.40;99.90;;;;;;5023182;28;20316;-60
2022/03/19 11:48:35;;;;;;;;;;;9.70;99.90;;;;;;5021714;28;19987;-60
2022/03/19 11:51:26;;;;;;;;;;;9.90;99.90;;;;;;5022809;28;20368;-60
2022/03/19 11:53:54;;;;;;;;;;;10.00;99.90;;;;;;5030663;28;19925;-60
2022/03/19 11:56:23;;;;;;;;;;;10.20;99.90;;;;;;5026884;28;19921;-60
2022/03/19 11:58:51;;;;;;;;;;;10.20;99.90;;;;;;5014411;28;19927;-60
2022/03/19 12:01:18;;;;;;;;;;;10.20;99.90;;;;;;5013537;28;19929;-60
2022/03/19 12:04:04;;;;;;;;;;;10.20;99.90;;;;;;5016648;28;19952;-60
2022/03/19 12:06:33;;;;;;;;;;;10.20;99.90;;;;;;5025602;28;19967;-60
2022/03/19 12:08:59;;;;;;;;;;;10.40;99.90;;;;;;5033618;28;20016;-60
2022/03/19 12:11:26;;;;;;;;;;;10.50;99.90;;;;;;5033709;28;19921;-60
2022/03/19 12:13:55;;;;;;;;;;;10.50;99.90;;;;;;5015313;28;20304;-60
2022/03/19 12:16:42;;;;;;;;;;;10.60;99.90;;;;;;5018343;28;19928;-61
2022/03/19 12:19:09;;;;;;;;;;;10.70;99.90;;;;;;5014735;28;19976;-60
2022/03/19 12:21:38;;;;;;;;;;;10.80;99.90;;;;;;5030138;28;19932;-60
2022/03/19 12:24:09;;;;;;;;;;;10.80;99.90;;;;;;5023305;28;20407;-60
2022/03/19 12:26:40;;;;;;;;;;;10.90;99.10;;;;;;5033818;28;20008;-60
2022/03/19 12:29:09;;;;;;;;;;;10.90;98.10;;;;;;5029050;28;19956;-60
2022/03/19 12:31:47;;;;;;;;;;;10.90;99.90;;;;;;5021671;28;19925;-60
2022/03/19 12:34:25;;;;;;;;;;;11.10;98.50;;;;;;5022687;28;19925;-60
2022/03/19 12:36:58;;;;;;;;;;;11.10;99.30;;;;;;5024044;28;19951;-60
2022/03/19 12:39:25;;;;;;;;;;;11.00;98.40;;;;;;5023345;28;19987;-60
2022/03/19 12:41:52;;;;;;;;;;;10.90;98.10;;;;;;5022126;28;20282;-60
2022/03/19 12:44:32;;;;;;;;;;;10.80;98.40;;;;;;5016420;28;19929;-60
2022/03/19 12:46:59;;;;;;;;;;;10.90;99.60;;;;;;5020933;28;19921;-60
2022/03/19 12:49:27;;;;;;;;;;;11.10;99.10;;;;;;5023164;28;19963;-60
2022/03/19 12:51:58;;;;;;;;;;;11.10;98.60;;;;;;5009429;23;20284;31
2022/03/19 12:54:52;;;;;;;;;;;11.10;98.00;;;;;;4988216;28;19984;-60
2022/03/19 12:57:25;;;;;;;;;;;11.00;98.50;;;;;;4980837;28;20314;-60
2022/03/19 12:59:56;;;;;;;;;;;11.10;97.00;;;;;;4985498;28;20016;-59
2022/03/19 13:02:25;;;;;;;;;;;11.10;96.70;;;;;;4987263;28;19949;-60
2022/03/19 13:04:52;;;;;;;;;;;11.10;97.50;;;;;;5010866;28;20369;-59
2022/03/19 13:07:22;;;;;;;;;;;11.00;96.90;;;;;;5012968;28;19921;-60
2022/03/19 13:09:49;;;;;;;;;;;11.10;97.90;;;;;;5012876;28;19925;-60
2022/03/19 13:12:17;;;;;;;;;;;11.10;97.70;;;;;;4999832;28;19975;-60
2022/03/19 13:14:48;;;;;;;;;;;11.10;97.40;;;;;;5011988;28;19968;-60
2022/03/19 13:17:16;;;;;;;;;;;11.10;97.30;;;;;;5012921;28;19968;-60
2022/03/19 13:19:44;;;;;;;;;;;11.10;98.00;;;;;;5009757;28;19960;-60
2022/03/19 13:22:16;;;;;;;;;;;11.10;96.70;;;;;;5006057;28;19988;-60
2022/03/19 13:24:46;;;;;;;;;;;11.00;96.40;;;;;;5012814;28;19943;-60
2022/03/19 13:27:16;;;;;;;;;;;11.00;96.40;;;;;;5012698;28;20008;-60
2022/03/19 13:29:43;;;;;;;;;;;10.90;96.80;;;;;;5007322;28;19929;-59
2022/03/19 13:32:11;;;;;;;;;;;10.90;96.90;;;;;;5005947;28;20004;-60
2022/03/19 13:34:42;;;;;;;;;;;10.90;96.90;;;;;;5012736;28;19975;-60
2022/03/19 13:37:10;;;;;;;;;;;10.90;95.70;;;;;;5012668;28;20343;-60
2022/03/19 13:39:42;;;;;;;;;;;10.90;96.20;;;;;;5003082;28;20451;-60
2022/03/19 13:42:10;;;;;;;;;;;10.80;96.40;;;;;;5011711;28;19931;-59
2022/03/19 13:44:38;;;;;;;;;;;10.70;96.90;;;;;;5012636;28;19980;-60
2022/03/19 13:47:05;;;;;;;;;;;10.70;96.20;;;;;;4998971;28;19921;-59
2022/03/19 13:49:39;;;;;;;;;;;10.60;96.60;;;;;;5009486;28;19968;-60
2022/03/19 13:52:25;;;;;;;;;;;10.70;95.80;;;;;;5011853;28;20377;-60
2022/03/19 13:54:52;;;;;;;;;;;10.70;95.20;;;;;;5007583;28;19925;-60
2022/03/19 13:57:19;;;;;;;;;;;10.70;95.90;;;;;;5007196;28;20389;-60
2022/03/19 13:59:46;;;;;;;;;;;10.70;95.60;;;;;;5012294;28;19947;-60
2022/03/19 14:02:13;;;;;;;;;;;10.80;95.40;;;;;;5011816;28;19972;-60
2022/03/19 14:04:41;;;;;;;;;;;11.00;96.30;;;;;;4997142;28;19921;-60
2022/03/19 14:07:08;;;;;;;;;;;11.00;96.00;;;;;;5012055;28;19948;-59
2022/03/19 14:09:34;;;;;;;;;;;11.00;95.10;;;;;;5012388;28;19926;-60
2022/03/19 14:12:01;;;;;;;;;;;11.00;94.70;;;;;;5003320;28;19972;-60
2022/03/19 14:14:35;;;;;;;;;;;11.10;94.90;;;;;;5008289;28;19921;-60
2022/03/19 14:17:02;;;;;;;;;;;11.10;95.30;;;;;;5011870;28;19921;-59
2022/03/19 14:19:30;;;;;;;;;;;11.00;94.70;;;;;;5011674;28;20385;-60
2022/03/19 14:21:57;;;;;;;;;;;11.20;94.20;;;;;;4995470;28;20389;-60
2022/03/19 14:24:24;;;;;;;;;;;11.20;94.20;;;;;;5012219;28;19921;-60
2022/03/19 14:26:56;;;;;;;;;;;11.40;94.60;;;;;;5016133;28;20437;-59
2022/03/19 14:29:23;;;;;;;;;;;11.20;94.20;;;;;;5003669;28;19922;-60
2022/03/19 14:31:51;;;;;;;;;;;11.10;94.40;;;;;;5014357;28;20300;-60
2022/03/19 14:34:18;;;;;;;;;;;10.90;93.80;;;;;;5015922;28;20400;-60
2022/03/19 14:36:44;;;;;;;;;;;10.90;94.10;;;;;;5012593;28;19929;-59
2022/03/19 14:39:12;;;;;;;;;;;10.80;94.00;;;;;;5009824;28;19925;-60
2022/03/19 14:41:39;;;;;;;;;;;10.80;94.00;;;;;;5015469;28;20023;-60
2022/03/19 14:44:05;;;;;;;;;;;11.00;94.70;;;;;;5015677;28;19955;-60
2022/03/19 14:46:32;;;;;;;;;;;10.90;93.00;;;;;;5006126;28;19975;-60
2022/03/19 14:49:00;;;;;;;;;;;10.80;94.40;;;;;;5015696;28;19925;-60
2022/03/19 14:51:27;;;;;;;;;;;10.80;94.80;;;;;;5015275;28;19932;-60